KLOU

Bowman Field Airport

Louisville, Kentucky, USA
METAR KLOU 280053Z 17004KT 10SM CLR 26/21 A2991 RMK AO2 SLP122 T02610211
Observed Flight Rules
May-28 @ 00:53 UTC (10 minutes ago) Visual Flight Rules
Wind Visibility Clouds
170° at 4 knots 10 miles
  • Clear skies
Temperatures Readings
Current 26°C / 79°F
Dewpoint 21°C / 70°F
Humidity 74%
Altimeter 29.91" Hg
Pressure 1012.2 hPa
Elevation 164
METAR KLOU 280053Z 17004KT 10SM CLR 26/21 A2991 RMK AO2 SLP122 T02610211
Observed Flight Rules
May-28 @ 00:53 UTC
(10 minutes ago)
VFR
Wind Visibility
170° at 4 knots 10 miles
Clouds
  • Clear skies
Temperature Dewpoint
26°C / 79°F 21°C / 70°F
Humidity Altimeter Pressure
74% 29.91" Hg 1012.2 hPa